map of LSC home
LSC - Airport
Location
City:  La Serena, Coquimbo, Chile
Name:La Florida Airport
ICAO:SCSE
IATA:LSC

Details
Type:Airport (Aerodrome, Airfield)
Use:Public/Civil
Latitude:2954'59"S (-29.916388)
Longitude:7111'58"W (-71.199443)
Elevation:481 ft (147 m)
Variation:0.22E (WMM2015 magnetic declination)
-0.17 annual change
Runways:1
Longest:6358 × 148 ft (1938 × 45 m), paved

Time
Time Zone:UTC-4 (DST-3)
Local Time:

Weather
METAR:SCSE 270000Z 32004KT CAVOK 12/10 Q1017
TAF:SCSE 271026Z 2712/2812 29004KT CAVOK TX16/2719Z TN10/2811Z
TEMPO 2712/2714 4000 BR FEW008 SCT010
BECMG 2715/2717 30010KT
BECMG 2801/2803 15004KT
TEMPO 2810/2812 SCT012

Related Locations
Nearby:
Farthest:JIQ: 12444 mi / 20026 km
Qianjiang (Zhoubai) [Qianjiang Wulingshan Airport], 50, CN

Find:

   beyond  
but within

Other Information
Maps:
NOTAMs:
Links:
Sources:

  
flag of Chile
flag of Coquimbo
  

Airport Diagram

Airport diagram for LSC

Larger airport diagram (OBSOLETE) from NGA

Sectional Chart

Flight Planning
at skyvector.com

Satellite Image

Google Maps Satellite view

 

Copyright © 2004-2018 Karl L. Swartz. All rights reserved.
The Great Circle Mapper name and logo are trademarks of the Great Circle Mapper.
All other trademarks mentioned herein belong to their respective owners.
Please see credits for attibutions and further copyright information.

  Follow gcmap on Facebook Follow gcmap on Twitter Follow gcmap on Google+ GCmap on LinkedIn

hCard Microformat

Geo Microformat